createdAt,value
2022-09-01T00:00:22.792Z,3.80
2022-09-01T00:05:38.083Z,3.90
2022-09-01T00:10:42.147Z,4.20
2022-09-01T00:15:45.270Z,3.70
2022-09-01T00:20:48.352Z,4.10
2022-09-01T00:25:51.373Z,3.60
2022-09-01T00:30:54.503Z,3.50
2022-09-01T00:35:58.501Z,3.70
2022-09-01T00:41:02.223Z,4.20
2022-09-01T00:46:13.533Z,3.90
2022-09-01T00:51:21.835Z,3.80
2022-09-01T00:56:25.164Z,3.20
2022-09-01T01:06:33.442Z,3.40
2022-09-01T01:11:37.043Z,3.50
2022-09-01T01:16:44.816Z,3.90
2022-09-01T01:22:06.619Z,3.80
2022-09-01T01:27:09.704Z,4.10
2022-09-01T01:32:13.341Z,3.60
2022-09-01T01:37:17.044Z,3.70
2022-09-01T01:42:20.271Z,4.20
2022-09-01T01:47:23.327Z,4.10
2022-09-01T01:52:27.279Z,3.60
2022-09-01T01:57:33.176Z,3.90
2022-09-01T02:02:38.242Z,3.80
2022-09-01T02:07:43.075Z,3.50
2022-09-01T02:12:46.568Z,3.70
2022-09-01T02:22:55.551Z,3.50
2022-09-01T02:28:00.696Z,3.70
2022-09-01T02:33:05.159Z,3.50
2022-09-01T02:38:08.961Z,3.70
2022-09-01T02:43:12.459Z,3.30
2022-09-01T02:48:16.473Z,4.10
2022-09-01T02:53:22.578Z,3.40
2022-09-01T02:58:34.353Z,3.40
2022-09-01T03:03:38.205Z,3.50
2022-09-01T03:08:41.221Z,3.50
2022-09-01T03:13:44.290Z,4.00
2022-09-01T03:18:47.623Z,3.40
2022-09-01T03:23:52.837Z,3.40
2022-09-01T03:28:57.106Z,3.00
2022-09-01T03:34:01.438Z,3.40
2022-09-01T03:39:05.018Z,3.60
2022-09-01T03:44:12.303Z,4.00
2022-09-01T03:49:15.798Z,4.10
2022-09-01T03:54:18.999Z,3.60
2022-09-01T03:59:22.728Z,4.10
2022-09-01T04:04:26.674Z,4.30
2022-09-01T04:09:29.708Z,3.70
2022-09-01T04:14:33.142Z,4.20
2022-09-01T04:19:39.720Z,4.20
2022-09-01T04:24:46.265Z,4.50
2022-09-01T04:29:50.361Z,5.20
2022-09-01T04:34:53.396Z,4.60
2022-09-01T04:39:57.922Z,3.50
2022-09-01T04:45:01.971Z,4.10
2022-09-01T04:50:16.410Z,3.50
2022-09-01T04:55:19.689Z,3.80
2022-09-01T05:05:27.469Z,3.00
2022-09-01T05:10:31.742Z,3.00
2022-09-01T05:15:35.739Z,2.80
2022-09-01T05:20:43.432Z,3.00
2022-09-01T05:25:51.343Z,2.90
2022-09-01T05:30:54.879Z,2.80
2022-09-01T05:36:02.195Z,2.90
2022-09-01T05:41:08.772Z,2.90
2022-09-01T05:46:12.727Z,2.80
2022-09-01T05:51:43.141Z,2.80
2022-09-01T05:56:48.169Z,2.90
2022-09-01T06:01:53.132Z,2.80
2022-09-01T06:07:06.436Z,2.40
2022-09-01T06:12:18.433Z,2.40
2022-09-01T06:17:26.511Z,2.90
2022-09-01T06:22:29.732Z,2.40
2022-09-01T06:32:38.755Z,2.40
2022-09-01T06:37:46.213Z,2.40
2022-09-01T06:42:52.633Z,2.40
2022-09-01T06:47:57.682Z,2.30
2022-09-01T06:58:33.872Z,2.00
2022-09-01T07:03:37.405Z,2.00
2022-09-01T07:14:21.782Z,2.00
2022-09-01T07:19:48.391Z,1.60
2022-09-01T07:25:11.531Z,1.80
2022-09-01T07:30:12.958Z,1.90
2022-09-01T07:35:22.619Z,1.70
2022-09-01T07:45:58.906Z,1.90
2022-09-01T07:56:25.834Z,1.40
2022-09-01T08:01:28.950Z,1.40
2022-09-01T08:06:39.308Z,1.30
2022-09-01T08:12:01.822Z,1.20
2022-09-01T08:22:29.022Z,1.30
2022-09-01T08:27:36.530Z,1.30
2022-09-01T08:32:44.189Z,1.20
2022-09-01T08:37:47.216Z,1.30
2022-09-01T08:43:19.930Z,1.00
2022-09-01T08:54:32.064Z,1.20
2022-09-01T09:04:56.988Z,1.00
2022-09-01T09:10:51.162Z,1.20
2022-09-01T09:16:08.719Z,1.20
2022-09-01T09:21:42.738Z,0.90
2022-09-01T09:26:55.237Z,0.90
2022-09-01T09:32:39.529Z,1.10
2022-09-01T09:37:32.626Z,1.00
2022-09-01T09:42:40.038Z,0.90
2022-09-01T09:47:46.803Z,0.90
2022-09-01T09:52:52.471Z,0.90
2022-09-01T09:58:02.043Z,0.90
2022-09-01T10:03:13.644Z,1.00
2022-09-01T10:08:37.237Z,1.00
2022-09-01T10:13:40.603Z,1.10
2022-09-01T10:18:46.762Z,1.20
2022-09-01T10:23:49.894Z,1.10
2022-09-01T10:34:19.887Z,1.30
2022-09-01T10:39:28.704Z,1.00
2022-09-01T10:44:58.309Z,1.10
2022-09-01T10:50:21.039Z,1.20
2022-09-01T11:00:36.923Z,1.10
2022-09-01T11:06:12.014Z,1.20
2022-09-01T11:11:51.768Z,1.00
2022-09-01T11:17:29.202Z,1.00
2022-09-01T11:22:33.978Z,1.30
2022-09-01T11:27:49.176Z,1.30
2022-09-01T11:33:00.331Z,1.10
2022-09-01T11:38:08.022Z,1.00
2022-09-01T11:43:16.879Z,1.30
2022-09-01T11:48:22.746Z,1.30
2022-09-01T11:53:27.383Z,1.10
2022-09-01T11:58:39.503Z,2.40
2022-09-01T12:03:44.261Z,1.00
2022-09-01T12:09:05.432Z,0.90
2022-09-01T12:14:12.423Z,1.30
2022-09-01T12:19:30.138Z,1.30
2022-09-01T12:24:37.164Z,1.30
2022-09-01T12:29:40.903Z,0.90
2022-09-01T12:35:01.513Z,0.80
2022-09-01T12:40:05.747Z,1.10
2022-09-01T12:45:11.356Z,1.20
2022-09-01T12:50:16.472Z,1.10
2022-09-01T13:01:12.258Z,0.90
2022-09-01T13:06:20.191Z,0.90
2022-09-01T13:16:26.049Z,0.90
2022-09-01T13:21:30.544Z,1.00
2022-09-01T13:26:34.017Z,1.00
2022-09-01T13:31:37.423Z,0.80
2022-09-01T13:36:45.469Z,1.10
2022-09-01T13:41:49.920Z,1.00
2022-09-01T13:47:00.876Z,1.00
2022-09-01T13:52:16.203Z,1.00
2022-09-01T13:57:19.254Z,1.10
2022-09-01T14:07:25.070Z,1.20
2022-09-01T14:12:28.744Z,1.70
2022-09-01T14:17:32.062Z,1.50
2022-09-01T14:22:38.499Z,1.70
2022-09-01T14:27:44.648Z,1.40
2022-09-01T14:32:48.145Z,1.30
2022-09-01T14:37:53.571Z,2.00
2022-09-01T14:42:57.552Z,1.30
2022-09-01T14:53:04.488Z,0.90
2022-09-01T15:03:10.581Z,1.40
2022-09-01T15:13:21.169Z,0.90
2022-09-01T15:18:24.347Z,1.10
2022-09-01T15:28:30.252Z,4.30
2022-09-01T15:38:36.157Z,1.10
2022-09-01T15:48:46.145Z,1.80
2022-09-01T15:53:55.579Z,1.40
2022-09-01T15:59:01.612Z,2.30
2022-09-01T16:04:07.774Z,2.90
2022-09-01T16:09:12.692Z,2.40
2022-09-01T16:14:16.270Z,2.80
2022-09-01T16:19:40.239Z,2.20
2022-09-01T16:24:48.383Z,2.00
2022-09-01T16:30:22.659Z,1.70
2022-09-01T16:35:57.601Z,2.00
2022-09-01T16:41:31.444Z,2.30
2022-09-01T16:46:46.280Z,1.70
2022-09-01T16:52:06.913Z,1.30
2022-09-01T16:57:49.124Z,1.60
2022-09-01T17:08:23.591Z,1.40
2022-09-01T17:13:38.483Z,2.10
2022-09-01T17:18:58.000Z,2.40
2022-09-01T17:24:19.310Z,4.80
2022-09-01T17:29:51.994Z,4.00
2022-09-01T17:35:30.046Z,5.00
2022-09-01T17:41:13.622Z,9.00
2022-09-01T17:46:44.404Z,10.10
2022-09-01T17:52:26.544Z,8.10
2022-09-01T17:57:51.063Z,6.50
2022-09-01T18:03:26.332Z,5.10
2022-09-01T18:08:38.290Z,5.30
2022-09-01T18:14:03.883Z,7.70
2022-09-01T18:19:19.446Z,6.30
2022-09-01T18:24:43.539Z,5.20
2022-09-01T18:29:46.910Z,4.70
2022-09-01T18:35:28.292Z,4.40
2022-09-01T18:41:12.698Z,4.10
2022-09-01T18:47:03.554Z,3.60
2022-09-01T18:52:36.538Z,3.60
2022-09-01T18:57:41.862Z,4.20
2022-09-01T19:03:00.002Z,3.90
2022-09-01T19:08:12.029Z,3.80
2022-09-01T19:14:03.505Z,3.80
2022-09-01T19:19:28.338Z,4.00
2022-09-01T19:24:47.860Z,4.50
2022-09-01T19:30:02.248Z,4.80
2022-09-01T19:35:14.417Z,5.30
2022-09-01T19:40:32.072Z,4.20
2022-09-01T19:45:56.876Z,4.30
2022-09-01T19:51:15.371Z,4.40
2022-09-01T19:56:32.938Z,5.30
2022-09-01T20:01:59.627Z,6.20
2022-09-01T20:07:02.992Z,6.50
2022-09-01T20:17:55.690Z,7.00
2022-09-01T20:23:32.912Z,7.30
2022-09-01T20:28:47.817Z,7.20
2022-09-01T20:34:15.302Z,6.90
2022-09-01T20:40:04.918Z,7.50
2022-09-01T20:45:19.997Z,6.80
2022-09-01T20:51:01.591Z,7.70
2022-09-01T20:56:47.816Z,7.70
2022-09-01T21:02:40.458Z,7.80
2022-09-01T21:07:52.293Z,7.70
2022-09-01T21:13:30.771Z,7.30
2022-09-01T21:19:07.822Z,6.30
2022-09-01T21:24:10.871Z,6.50
2022-09-01T21:29:52.524Z,7.30
2022-09-01T21:34:56.475Z,6.60
2022-09-01T21:39:59.987Z,6.60
2022-09-01T21:45:06.553Z,5.80
2022-09-01T21:50:10.581Z,6.50
2022-09-01T21:55:14.731Z,5.10
2022-09-01T22:00:31.838Z,5.00
2022-09-01T22:05:36.013Z,5.50
2022-09-01T22:10:49.816Z,6.10
2022-09-01T22:15:54.566Z,5.30
2022-09-01T22:21:10.070Z,5.10
2022-09-01T22:26:30.441Z,5.80
2022-09-01T22:31:37.471Z,5.10
2022-09-01T22:36:46.412Z,5.50
2022-09-01T22:41:49.418Z,5.30
2022-09-01T22:46:52.495Z,5.10
2022-09-01T22:51:55.518Z,5.30
2022-09-01T23:02:02.867Z,4.90
2022-09-01T23:07:07.310Z,5.00
2022-09-01T23:12:10.297Z,5.10
2022-09-01T23:17:13.324Z,5.10
2022-09-01T23:22:17.113Z,4.80
2022-09-01T23:27:20.193Z,4.10
2022-09-01T23:32:23.210Z,4.70
2022-09-01T23:37:27.525Z,4.80
2022-09-01T23:42:30.496Z,5.30
2022-09-01T23:47:35.735Z,4.90
2022-09-01T23:52:39.557Z,4.80
2022-09-01T23:57:42.598Z,4.30
